sensor_id;sensor_type;location;lat;lon;timestamp;pressure;altitude;pressure_sealevel;temperature;humidity
10510;BME280;5303;53.266;10.410;2023-02-13T00:02:19;103552.50;;;10.02;100.00
10510;BME280;5303;53.266;10.410;2023-02-13T00:04:44;103549.44;;;10.07;100.00
10510;BME280;5303;53.266;10.410;2023-02-13T00:07:11;103548.56;;;10.07;100.00
10510;BME280;5303;53.266;10.410;2023-02-13T00:09:37;103544.53;;;9.99;100.00
10510;BME280;5303;53.266;10.410;2023-02-13T00:12:04;103548.69;;;10.05;100.00
10510;BME280;5303;53.266;10.410;2023-02-13T00:14:29;103553.75;;;10.11;100.00
10510;BME280;5303;53.266;10.410;2023-02-13T00:16:54;103544.66;;;10.11;100.00
10510;BME280;5303;53.266;10.410;2023-02-13T00:19:20;103553.88;;;9.95;100.00
10510;BME280;5303;53.266;10.410;2023-02-13T00:21:45;103551.63;;;10.02;100.00
10510;BME280;5303;53.266;10.410;2023-02-13T00:24:10;103547.03;;;10.02;100.00
10510;BME280;5303;53.266;10.410;2023-02-13T00:26:36;103544.31;;;10.02;100.00
10510;BME280;5303;53.266;10.410;2023-02-13T00:29:01;103549.44;;;10.07;100.00
10510;BME280;5303;53.266;10.410;2023-02-13T00:31:26;103544.41;;;10.01;100.00
10510;BME280;5303;53.266;10.410;2023-02-13T00:33:51;103543.25;;;10.05;100.00
10510;BME280;5303;53.266;10.410;2023-02-13T00:36:19;103538.34;;;10.10;100.00
10510;BME280;5303;53.266;10.410;2023-02-13T00:38:45;103536.63;;;10.09;100.00
10510;BME280;5303;53.266;10.410;2023-02-13T00:41:11;103540.53;;;10.05;100.00
10510;BME280;5303;53.266;10.410;2023-02-13T00:43:37;103539.34;;;10.09;100.00
10510;BME280;5303;53.266;10.410;2023-02-13T00:46:03;103541.94;;;10.11;100.00
10510;BME280;5303;53.266;10.410;2023-02-13T00:48:30;103541.00;;;10.12;100.00
10510;BME280;5303;53.266;10.410;2023-02-13T00:50:56;103540.53;;;10.05;100.00
10510;BME280;5303;53.266;10.410;2023-02-13T00:53:23;103539.34;;;10.09;100.00
10510;BME280;5303;53.266;10.410;2023-02-13T00:55:49;103539.34;;;10.09;100.00
10510;BME280;5303;53.266;10.410;2023-02-13T00:58:15;103537.81;;;10.05;100.00
10510;BME280;5303;53.266;10.410;2023-02-13T01:00:41;103535.84;;;10.07;100.00
10510;BME280;5303;53.266;10.410;2023-02-13T01:03:07;103541.06;;;10.10;100.00
10510;BME280;5303;53.266;10.410;2023-02-13T01:05:33;103544.13;;;10.06;100.00
10510;BME280;5303;53.266;10.410;2023-02-13T01:07:58;103535.63;;;10.10;100.00
10510;BME280;5303;53.266;10.410;2023-02-13T01:10:24;103542.25;;;10.06;100.00
10510;BME280;5303;53.266;10.410;2023-02-13T01:12:49;103549.66;;;10.04;100.00
10510;BME280;5303;53.266;10.410;2023-02-13T01:15:14;103538.75;;;10.04;100.00
10510;BME280;5303;53.266;10.410;2023-02-13T01:17:40;103533.88;;;10.09;100.00
10510;BME280;5303;53.266;10.410;2023-02-13T01:20:07;103532.56;;;10.02;100.00
10510;BME280;5303;53.266;10.410;2023-02-13T01:22:32;103530.50;;;10.06;100.00
10510;BME280;5303;53.266;10.410;2023-02-13T01:24:57;103528.28;;;9.98;100.00
10510;BME280;5303;53.266;10.410;2023-02-13T01:27:23;103525.66;;;9.96;100.00
10510;BME280;5303;53.266;10.410;2023-02-13T01:29:48;103525.56;;;9.98;100.00
10510;BME280;5303;53.266;10.410;2023-02-13T01:32:13;103523.81;;;9.97;100.00
10510;BME280;5303;53.266;10.410;2023-02-13T01:34:39;103529.94;;;10.00;100.00
10510;BME280;5303;53.266;10.410;2023-02-13T01:37:04;103527.88;;;10.04;100.00
10510;BME280;5303;53.266;10.410;2023-02-13T01:39:29;103521.00;;;9.98;100.00
10510;BME280;5303;53.266;10.410;2023-02-13T01:41:55;103514.56;;;9.99;100.00
10510;BME280;5303;53.266;10.410;2023-02-13T01:44:58;103514.91;;;10.08;100.00
10510;BME280;5303;53.266;10.410;2023-02-13T01:55:38;103514.16;;;10.06;100.00
10510;BME280;5303;53.266;10.410;2023-02-13T01:58:11;103508.94;;;10.02;100.00
10510;BME280;5303;53.266;10.410;2023-02-13T02:00:40;103504.13;;;10.06;100.00
10510;BME280;5303;53.266;10.410;2023-02-13T02:03:11;103502.19;;;10.08;100.00
10510;BME280;5303;53.266;10.410;2023-02-13T02:05:38;103500.84;;;10.01;100.00
10510;BME280;5303;53.266;10.410;2023-02-13T02:08:06;103499.69;;;10.05;100.00
10510;BME280;5303;53.266;10.410;2023-02-13T02:10:32;103501.00;;;10.12;100.00
10510;BME280;5303;53.266;10.410;2023-02-13T02:13:18;103495.44;;;10.14;100.00
10510;BME280;5303;53.266;10.410;2023-02-13T02:15:46;103493.06;;;10.22;100.00
10510;BME280;5303;53.266;10.410;2023-02-13T02:32:07;103495.59;;;9.98;100.00
10510;BME280;5303;53.266;10.410;2023-02-13T02:34:50;103503.63;;;9.87;100.00
10510;BME280;5303;53.266;10.410;2023-02-13T02:37:31;103497.00;;;9.91;100.00
10510;BME280;5303;53.266;10.410;2023-02-13T02:40:15;103497.00;;;9.91;100.00
10510;BME280;5303;53.266;10.410;2023-02-13T02:47:59;103496.91;;;9.92;100.00
10510;BME280;5303;53.266;10.410;2023-02-13T02:50:52;103486.22;;;9.89;100.00
10510;BME280;5303;53.266;10.410;2023-02-13T02:53:38;103489.91;;;9.88;100.00
10510;BME280;5303;53.266;10.410;2023-02-13T02:56:25;103482.16;;;9.82;100.00
10510;BME280;5303;53.266;10.410;2023-02-13T02:58:57;103489.03;;;9.88;100.00
10510;BME280;5303;53.266;10.410;2023-02-13T03:01:45;103487.31;;;9.87;100.00
10510;BME280;5303;53.266;10.410;2023-02-13T03:04:36;103490.22;;;9.84;100.00
10510;BME280;5303;53.266;10.410;2023-02-13T03:07:21;103487.31;;;9.87;100.00
10510;BME280;5303;53.266;10.410;2023-02-13T03:09:59;103483.47;;;9.76;100.00
10510;BME280;5303;53.266;10.410;2023-02-13T03:15:33;103483.47;;;9.76;100.00
10510;BME280;5303;53.266;10.410;2023-02-13T03:17:59;103490.53;;;9.79;100.00
10510;BME280;5303;53.266;10.410;2023-02-13T03:20:53;103486.59;;;9.70;100.00
10510;BME280;5303;53.266;10.410;2023-02-13T03:23:53;103486.94;;;9.78;100.00
10510;BME280;5303;53.266;10.410;2023-02-13T03:34:35;103481.34;;;9.67;100.00
10510;BME280;5303;53.266;10.410;2023-02-13T03:37:27;103489.19;;;9.72;100.00
10510;BME280;5303;53.266;10.410;2023-02-13T03:40:31;103489.84;;;9.75;100.00
10510;BME280;5303;53.266;10.410;2023-02-13T03:43:10;103489.66;;;9.78;100.00
10510;BME280;5303;53.266;10.410;2023-02-13T03:45:41;103484.22;;;9.78;100.00
10510;BME280;5303;53.266;10.410;2023-02-13T03:48:22;103480.53;;;9.79;100.00
10510;BME280;5303;53.266;10.410;2023-02-13T03:51:07;103485.97;;;9.79;100.00
10510;BME280;5303;53.266;10.410;2023-02-13T03:53:35;103486.25;;;9.75;100.00
10510;BME280;5303;53.266;10.410;2023-02-13T03:56:03;103480.53;;;9.79;100.00
10510;BME280;5303;53.266;10.410;2023-02-13T03:58:51;103486.63;;;9.83;100.00
10510;BME280;5303;53.266;10.410;2023-02-13T04:01:37;103493.16;;;9.80;100.00
10510;BME280;5303;53.266;10.410;2023-02-13T04:04:14;103492.56;;;9.75;100.00
10510;BME280;5303;53.266;10.410;2023-02-13T04:06:51;103491.25;;;9.68;100.00
10510;BME280;5303;53.266;10.410;2023-02-13T04:09:18;103486.19;;;9.76;100.00
10510;BME280;5303;53.266;10.410;2023-02-13T04:11:52;103491.72;;;9.75;100.00
10510;BME280;5303;53.266;10.410;2023-02-13T04:17:03;103493.88;;;9.70;100.00
10510;BME280;5303;53.266;10.410;2023-02-13T04:19:30;103495.88;;;9.80;100.00
10510;BME280;5303;53.266;10.410;2023-02-13T04:21:58;103496.94;;;9.78;100.00
10510;BME280;5303;53.266;10.410;2023-02-13T04:24:26;103494.34;;;9.76;100.00
10510;BME280;5303;53.266;10.410;2023-02-13T04:26:52;103488.31;;;9.71;100.00
10510;BME280;5303;53.266;10.410;2023-02-13T04:29:19;103490.56;;;9.65;100.00
10510;BME280;5303;53.266;10.410;2023-02-13T04:31:45;103496.28;;;9.74;100.00
10510;BME280;5303;53.266;10.410;2023-02-13T04:34:10;103495.25;;;9.63;100.00
10510;BME280;5303;53.266;10.410;2023-02-13T04:36:35;103502.66;;;9.61;100.00
10510;BME280;5303;53.266;10.410;2023-02-13T04:39:01;103500.41;;;9.67;100.00
10510;BME280;5303;53.266;10.410;2023-02-13T04:41:26;103499.31;;;9.70;100.00
10510;BME280;5303;53.266;10.410;2023-02-13T04:43:51;103496.59;;;9.70;100.00
10510;BME280;5303;53.266;10.410;2023-02-13T04:46:17;103496.81;;;9.67;100.00
10510;BME280;5303;53.266;10.410;2023-02-13T04:48:42;103488.72;;;9.65;100.00
10510;BME280;5303;53.266;10.410;2023-02-13T04:51:07;103492.13;;;9.69;100.00
10510;BME280;5303;53.266;10.410;2023-02-13T04:53:33;103492.69;;;9.74;100.00
10510;BME280;5303;53.266;10.410;2023-02-13T04:55:58;103496.59;;;9.70;100.00
10510;BME280;5303;53.266;10.410;2023-02-13T04:58:23;103489.50;;;9.67;100.00
10510;BME280;5303;53.266;10.410;2023-02-13T05:00:48;103492.13;;;9.69;100.00
10510;BME280;5303;53.266;10.410;2023-02-13T05:03:14;103493.97;;;9.68;100.00
10510;BME280;5303;53.266;10.410;2023-02-13T05:05:39;103489.97;;;9.74;100.00
10510;BME280;5303;53.266;10.410;2023-02-13T05:08:06;103489.31;;;9.70;100.00
10510;BME280;5303;53.266;10.410;2023-02-13T05:10:31;103494.94;;;9.67;100.00
10510;BME280;5303;53.266;10.410;2023-02-13T05:12:57;103491.56;;;9.64;100.00
10510;BME280;5303;53.266;10.410;2023-02-13T05:15:23;103492.44;;;9.64;100.00
10510;BME280;5303;53.266;10.410;2023-02-13T05:17:48;103483.59;;;9.61;100.00
10510;BME280;5303;53.266;10.410;2023-02-13T05:20:14;103487.97;;;9.63;100.00
10510;BME280;5303;53.266;10.410;2023-02-13T05:22:47;103486.00;;;9.65;100.00
10510;BME280;5303;53.266;10.410;2023-02-13T05:25:32;103489.38;;;9.69;100.00
10510;BME280;5303;53.266;10.410;2023-02-13T05:27:58;103486.66;;;9.69;100.00
10510;BME280;5303;53.266;10.410;2023-02-13T05:30:23;103494.16;;;9.65;100.00
10510;BME280;5303;53.266;10.410;2023-02-13T05:32:48;103488.72;;;9.65;100.00
10510;BME280;5303;53.266;10.410;2023-02-13T05:35:19;103483.09;;;9.68;100.00
10510;BME280;5303;53.266;10.410;2023-02-13T05:37:45;103485.06;;;9.66;100.00
10510;BME280;5303;53.266;10.410;2023-02-13T05:40:11;103480.22;;;9.57;100.00
10510;BME280;5303;53.266;10.410;2023-02-13T05:42:37;103484.66;;;9.58;100.00
10510;BME280;5303;53.266;10.410;2023-02-13T05:45:02;103487.47;;;9.56;100.00
10510;BME280;5303;53.266;10.410;2023-02-13T05:47:28;103479.22;;;9.58;100.00
10510;BME280;5303;53.266;10.410;2023-02-13T05:49:53;103485.66;;;9.57;100.00
10510;BME280;5303;53.266;10.410;2023-02-13T05:52:18;103487.72;;;9.53;100.00
10510;BME280;5303;53.266;10.410;2023-02-13T05:54:43;103481.94;;;9.58;100.00
10510;BME280;5303;53.266;10.410;2023-02-13T05:57:09;103485.91;;;9.67;100.00
10510;BME280;5303;53.266;10.410;2023-02-13T05:59:34;103488.06;;;9.62;100.00
10510;BME280;5303;53.266;10.410;2023-02-13T06:01:59;103493.91;;;9.55;100.00
10510;BME280;5303;53.266;10.410;2023-02-13T06:04:25;103488.47;;;9.55;100.00
10510;BME280;5303;53.266;10.410;2023-02-13T06:06:50;103496.16;;;9.49;100.00
10510;BME280;5303;53.266;10.410;2023-02-13T06:09:16;103500.53;;;9.51;100.00
10510;BME280;5303;53.266;10.410;2023-02-13T06:11:41;103491.31;;;9.54;100.00
10510;BME280;5303;53.266;10.410;2023-02-13T06:14:06;103494.50;;;9.61;100.00
10510;BME280;5303;53.266;10.410;2023-02-13T06:16:32;103506.25;;;9.61;100.00
10510;BME280;5303;53.266;10.410;2023-02-13T06:18:57;103507.63;;;9.54;100.00
10510;BME280;5303;53.266;10.410;2023-02-13T06:21:22;103514.03;;;9.53;100.00
10510;BME280;5303;53.266;10.410;2023-02-13T06:23:48;103513.94;;;9.54;100.00
10510;BME280;5303;53.266;10.410;2023-02-13T06:26:13;103509.56;;;9.52;100.00
10510;BME280;5303;53.266;10.410;2023-02-13T06:28:38;103510.44;;;9.52;100.00
10510;BME280;5303;53.266;10.410;2023-02-13T06:31:04;103508.28;;;9.57;100.00
10510;BME280;5303;53.266;10.410;2023-02-13T06:33:29;103509.22;;;9.44;100.00
10510;BME280;5303;53.266;10.410;2023-02-13T06:35:55;103512.69;;;9.46;100.00
10510;BME280;5303;53.266;10.410;2023-02-13T06:38:20;103516.00;;;9.51;100.00
10510;BME280;5303;53.266;10.410;2023-02-13T06:40:46;103514.13;;;9.51;100.00
10510;BME280;5303;53.266;10.410;2023-02-13T06:43:12;103517.63;;;9.53;100.00
10510;BME280;5303;53.266;10.410;2023-02-13T06:45:37;103512.88;;;9.57;100.00
10510;BME280;5303;53.266;10.410;2023-02-13T06:48:03;103512.88;;;9.57;100.00
10510;BME280;5303;53.266;10.410;2023-02-13T06:50:28;103518.88;;;9.62;100.00
10510;BME280;5303;53.266;10.410;2023-02-13T06:52:53;103520.25;;;9.55;100.00
10510;BME280;5303;53.266;10.410;2023-02-13T06:55:19;103519.94;;;9.60;100.00
10510;BME280;5303;53.266;10.410;2023-02-13T06:57:45;103523.56;;;9.60;100.00
10510;BME280;5303;53.266;10.410;2023-02-13T07:00:12;103522.66;;;9.60;100.00
10510;BME280;5303;53.266;10.410;2023-02-13T07:02:42;103523.56;;;9.60;100.00
10510;BME280;5303;53.266;10.410;2023-02-13T07:05:08;103527.22;;;9.73;100.00
10510;BME280;5303;53.266;10.410;2023-02-13T07:07:36;103531.59;;;9.76;100.00
10510;BME280;5303;53.266;10.410;2023-02-13T07:10:04;103538.66;;;9.78;100.00
10510;BME280;5303;53.266;10.410;2023-02-13T07:12:32;103539.50;;;9.79;100.00
10510;BME280;5303;53.266;10.410;2023-02-13T07:14:57;103541.03;;;9.70;100.00
10510;BME280;5303;53.266;10.410;2023-02-13T07:17:22;103541.56;;;9.75;100.00
10510;BME280;5303;53.266;10.410;2023-02-13T07:19:47;103549.34;;;9.82;100.00
10510;BME280;5303;53.266;10.410;2023-02-13T07:22:13;103542.16;;;9.80;100.00
10510;BME280;5303;53.266;10.410;2023-02-13T07:24:38;103546.53;;;9.83;100.00
10510;BME280;5303;53.266;10.410;2023-02-13T07:27:04;103539.22;;;9.84;100.00
10510;BME280;5303;53.266;10.410;2023-02-13T07:29:29;103537.09;;;9.89;100.00
10510;BME280;5303;53.266;10.410;2023-02-13T07:31:55;103547.06;;;9.88;100.00
10510;BME280;5303;53.266;10.410;2023-02-13T07:34:20;103545.03;;;9.92;100.00
10510;BME280;5303;53.266;10.410;2023-02-13T07:36:46;103547.75;;;9.92;100.00
10510;BME280;5303;53.266;10.410;2023-02-13T07:39:11;103550.19;;;9.96;100.00
10510;BME280;5303;53.266;10.410;2023-02-13T07:41:37;103552.59;;;10.01;100.00
10510;BME280;5303;53.266;10.410;2023-02-13T07:44:04;103555.22;;;10.02;100.00
10510;BME280;5303;53.266;10.410;2023-02-13T07:46:29;103560.09;;;9.97;100.00
10510;BME280;5303;53.266;10.410;2023-02-13T07:48:54;103564.25;;;10.03;100.00
10510;BME280;5303;53.266;10.410;2023-02-13T07:51:20;103557.56;;;9.94;100.00
10510;BME280;5303;53.266;10.410;2023-02-13T07:53:49;103558.22;;;9.98;100.00
10510;BME280;5303;53.266;10.410;2023-02-13T07:56:14;103562.59;;;10.00;100.00
10510;BME280;5303;53.266;10.410;2023-02-13T07:58:39;103570.56;;;10.03;100.00
10510;BME280;5303;53.266;10.410;2023-02-13T08:01:11;103571.66;;;10.01;100.00
10510;BME280;5303;53.266;10.410;2023-02-13T08:03:37;103568.50;;;10.07;100.00
10510;BME280;5303;53.266;10.410;2023-02-13T08:06:03;103575.53;;;10.11;100.00
10510;BME280;5303;53.266;10.410;2023-02-13T08:08:29;103574.34;;;10.15;100.00
10510;BME280;5303;53.266;10.410;2023-02-13T08:10:54;103575.53;;;10.11;100.00
10510;BME280;5303;53.266;10.410;2023-02-13T08:13:39;103577.16;;;10.14;100.00
10510;BME280;5303;53.266;10.410;2023-02-13T08:16:04;103566.91;;;10.17;100.00
10510;BME280;5303;53.266;10.410;2023-02-13T08:18:30;103573.94;;;10.21;100.00
10510;BME280;5303;53.266;10.410;2023-02-13T08:20:55;103573.81;;;10.23;100.00
10510;BME280;5303;53.266;10.410;2023-02-13T08:23:20;103578.38;;;10.22;100.00
10510;BME280;5303;53.266;10.410;2023-02-13T08:25:45;103571.09;;;10.23;100.00
10510;BME280;5303;53.266;10.410;2023-02-13T08:28:14;103569.34;;;10.22;100.00
10510;BME280;5303;53.266;10.410;2023-02-13T08:30:40;103571.19;;;10.21;100.00
10510;BME280;5303;53.266;10.410;2023-02-13T08:33:05;103568.69;;;10.18;100.00
10510;BME280;5303;53.266;10.410;2023-02-13T08:35:30;103564.88;;;10.21;100.00
10510;BME280;5303;53.266;10.410;2023-02-13T08:37:56;103567.50;;;10.22;100.00
10510;BME280;5303;53.266;10.410;2023-02-13T08:40:26;103564.66;;;10.24;100.00
10510;BME280;5303;53.266;10.410;2023-02-13T08:42:51;103581.41;;;10.32;100.00
10510;BME280;5303;53.266;10.410;2023-02-13T08:45:17;103577.13;;;10.28;100.00
10510;BME280;5303;53.266;10.410;2023-02-13T08:47:42;103574.09;;;10.33;100.00
10510;BME280;5303;53.266;10.410;2023-02-13T08:50:07;103574.00;;;10.34;100.00
10510;BME280;5303;53.266;10.410;2023-02-13T08:52:33;103579.66;;;10.31;100.00
10510;BME280;5303;53.266;10.410;2023-02-13T08:54:58;103581.31;;;10.34;100.00
10510;BME280;5303;53.266;10.410;2023-02-13T08:57:23;103581.06;;;10.37;100.00
10510;BME280;5303;53.266;10.410;2023-02-13T08:59:49;103576.06;;;10.31;100.00
10510;BME280;5303;53.266;10.410;2023-02-13T09:02:15;103586.06;;;10.30;100.00
10510;BME280;5303;53.266;10.410;2023-02-13T09:04:40;103581.50;;;10.31;100.00
10510;BME280;5303;53.266;10.410;2023-02-13T09:07:06;103586.19;;;10.29;100.00
10510;BME280;5303;53.266;10.410;2023-02-13T09:09:31;103577.69;;;10.33;100.00
10510;BME280;5303;53.266;10.410;2023-02-13T09:11:56;103576.06;;;10.31;100.00
10510;BME280;5303;53.266;10.410;2023-02-13T09:14:23;103587.72;;;10.33;100.00
10510;BME280;5303;53.266;10.410;2023-02-13T09:16:48;103583.03;;;10.35;100.00
10510;BME280;5303;53.266;10.410;2023-02-13T09:19:14;103579.34;;;10.36;100.00
10510;BME280;5303;53.266;10.410;2023-02-13T09:21:39;103582.47;;;10.30;100.00
10510;BME280;5303;53.266;10.410;2023-02-13T09:24:08;103575.06;;;10.32;100.00
10510;BME280;5303;53.266;10.410;2023-02-13T09:26:34;103587.63;;;10.34;100.00
10510;BME280;5303;53.266;10.410;2023-02-13T09:28:59;103581.97;;;10.37;100.00
10510;BME280;5303;53.266;10.410;2023-02-13T09:31:25;103583.38;;;10.43;100.00
10510;BME280;5303;53.266;10.410;2023-02-13T09:33:51;103592.91;;;10.50;100.00
10510;BME280;5303;53.266;10.410;2023-02-13T09:36:19;103589.75;;;10.56;100.00
10510;BME280;5303;53.266;10.410;2023-02-13T09:38:46;103581.59;;;10.56;100.00
10510;BME280;5303;53.266;10.410;2023-02-13T09:41:39;103571.75;;;10.54;100.00
10510;BME280;5303;53.266;10.410;2023-02-13T09:44:14;103582.00;;;10.50;100.00
10510;BME280;5303;53.266;10.410;2023-02-13T09:47:00;103580.03;;;10.52;100.00
10510;BME280;5303;53.266;10.410;2023-02-13T09:49:29;103578.63;;;10.59;100.00
10510;BME280;5303;53.266;10.410;2023-02-13T09:51:56;103578.16;;;10.53;100.00
10510;BME280;5303;53.266;10.410;2023-02-13T09:54:22;103580.38;;;10.60;100.00
10510;BME280;5303;53.266;10.410;2023-02-13T09:56:54;103572.88;;;10.64;100.00
10510;BME280;5303;53.266;10.410;2023-02-13T09:59:52;103570.72;;;10.69;100.00
10510;BME280;5303;53.266;10.410;2023-02-13T10:02:49;103569.81;;;10.68;100.00
10510;BME280;5303;53.266;10.410;2023-02-13T10:08:17;103579.09;;;10.66;100.00
10510;BME280;5303;53.266;10.410;2023-02-13T10:10:58;103572.53;;;10.68;100.00
10510;BME280;5303;53.266;10.410;2023-02-13T10:13:49;103560.75;;;10.68;100.00
10510;BME280;5303;53.266;10.410;2023-02-13T10:19:15;103567.50;;;10.62;100.00
10510;BME280;5303;53.266;10.410;2023-02-13T10:21:49;103566.56;;;10.76;100.00
10510;BME280;5303;53.266;10.410;2023-02-13T10:26:57;103561.56;;;10.83;100.00
10510;BME280;5303;53.266;10.410;2023-02-13T10:29:55;103561.88;;;10.91;100.00
10510;BME280;5303;53.266;10.410;2023-02-13T10:32:36;103568.66;;;10.85;100.00
10510;BME280;5303;53.266;10.410;2023-02-13T10:35:15;103553.69;;;10.78;100.00
10510;BME280;5303;53.266;10.410;2023-02-13T10:37:42;103552.28;;;10.85;100.00
10510;BME280;5303;53.266;10.410;2023-02-13T10:40:10;103555.44;;;10.79;100.00
10510;BME280;5303;53.266;10.410;2023-02-13T10:42:43;103559.34;;;10.88;100.00
10510;BME280;5303;53.266;10.410;2023-02-13T10:45:15;103558.41;;;10.89;100.00
10510;BME280;5303;53.266;10.410;2023-02-13T10:50:25;103560.25;;;11.01;100.00
10510;BME280;5303;53.266;10.410;2023-02-13T10:53:14;103562.00;;;11.02;100.00
10510;BME280;5303;53.266;10.410;2023-02-13T10:56:21;103565.59;;;10.90;100.00
10510;BME280;5303;53.266;10.410;2023-02-13T11:01:49;103561.78;;;10.92;100.00
10510;BME280;5303;53.266;10.410;2023-02-13T11:04:18;103550.75;;;10.94;100.00
10510;BME280;5303;53.266;10.410;2023-02-13T11:07:01;103547.59;;;11.13;100.00
10510;BME280;5303;53.266;10.410;2023-02-13T11:09:33;103542.03;;;11.14;100.00
10510;BME280;5303;53.266;10.410;2023-02-13T11:12:22;103540.72;;;11.07;100.00
10510;BME280;5303;53.266;10.410;2023-02-13T11:15:27;103535.59;;;11.15;100.00
10510;BME280;5303;53.266;10.410;2023-02-13T11:17:55;103541.69;;;11.19;100.00
10510;BME280;5303;53.266;10.410;2023-02-13T11:20:34;103537.88;;;11.22;100.00
10510;BME280;5303;53.266;10.410;2023-02-13T11:23:27;103540.25;;;11.26;100.00
10510;BME280;5303;53.266;10.410;2023-02-13T11:26:04;103537.31;;;11.29;100.00
10510;BME280;5303;53.266;10.410;2023-02-13T11:28:36;103541.81;;;11.30;100.00
10510;BME280;5303;53.266;10.410;2023-02-13T11:31:15;103540.81;;;11.31;100.00
10510;BME280;5303;53.266;10.410;2023-02-13T11:33:42;103532.50;;;11.20;100.00
10510;BME280;5303;53.266;10.410;2023-02-13T11:36:14;103527.75;;;11.24;100.00
10510;BME280;5303;53.266;10.410;2023-02-13T11:38:40;103525.94;;;11.35;100.00
10510;BME280;5303;53.266;10.410;2023-02-13T11:41:13;103529.53;;;11.36;100.00
10510;BME280;5303;53.266;10.410;2023-02-13T11:43:47;103524.28;;;11.46;100.00
10510;BME280;5303;53.266;10.410;2023-02-13T11:46:19;103530.38;;;11.49;100.00
10510;BME280;5303;53.266;10.410;2023-02-13T11:48:56;103531.72;;;11.43;100.00
10510;BME280;5303;53.266;10.410;2023-02-13T11:51:40;103536.53;;;11.53;100.00
10510;BME280;5303;53.266;10.410;2023-02-13T11:54:22;103537.72;;;11.49;100.00
10510;BME280;5303;53.266;10.410;2023-02-13T11:56:50;103525.41;;;11.43;100.00
10510;BME280;5303;53.266;10.410;2023-02-13T11:59:16;103529.19;;;11.53;100.00
10510;BME280;5303;53.266;10.410;2023-02-13T12:01:42;103524.69;;;11.52;100.00
10510;BME280;5303;53.266;10.410;2023-02-13T12:04:20;103526.47;;;11.53;100.00
10510;BME280;5303;53.266;10.410;2023-02-13T12:07:03;103517.94;;;11.58;100.00
10510;BME280;5303;53.266;10.410;2023-02-13T12:09:36;103522.72;;;11.67;100.00
10510;BME280;5303;53.266;10.410;2023-02-13T12:12:03;103512.38;;;11.59;100.00
10510;BME280;5303;53.266;10.410;2023-02-13T12:14:33;103518.09;;;11.68;100.00
10510;BME280;5303;53.266;10.410;2023-02-13T12:17:04;103522.59;;;11.69;100.00
10510;BME280;5303;53.266;10.410;2023-02-13T12:19:38;103522.13;;;11.75;100.00
10510;BME280;5303;53.266;10.410;2023-02-13T12:22:28;103521.38;;;11.85;100.00
10510;BME280;5303;53.266;10.410;2023-02-13T12:27:31;103520.06;;;11.78;100.00
10510;BME280;5303;53.266;10.410;2023-02-13T12:33:08;103510.63;;;11.82;100.00
10510;BME280;5303;53.266;10.410;2023-02-13T12:35:55;103508.44;;;11.87;100.00
10510;BME280;5303;53.266;10.410;2023-02-13T12:38:38;103500.03;;;11.91;100.00
10510;BME280;5303;53.266;10.410;2023-02-13T12:41:18;103502.94;;;12.00;100.00
10510;BME280;5303;53.266;10.410;2023-02-13T12:43:58;103499.91;;;11.92;100.00
10510;BME280;5303;53.266;10.410;2023-02-13T12:46:45;103502.31;;;11.84;100.00
10510;BME280;5303;53.266;10.410;2023-02-13T12:58:06;103496.31;;;11.92;100.00
10510;BME280;5303;53.266;10.410;2023-02-13T13:03:36;103497.91;;;11.70;100.00
10510;BME280;5303;53.266;10.410;2023-02-13T13:06:14;103492.09;;;11.75;100.00
10510;BME280;5303;53.266;10.410;2023-02-13T13:14:31;103481.06;;;11.76;100.00
10510;BME280;5303;53.266;10.410;2023-02-13T13:20:02;103479.19;;;11.77;100.00
10510;BME280;5303;53.266;10.410;2023-02-13T13:25:31;103481.66;;;11.69;100.00
10510;BME280;5303;53.266;10.410;2023-02-13T13:28:04;103478.78;;;11.70;100.00
10510;BME280;5303;53.266;10.410;2023-02-13T13:30:34;103478.66;;;11.72;100.00
10510;BME280;5303;53.266;10.410;2023-02-13T13:33:14;103471.78;;;11.79;100.00
10510;BME280;5303;53.266;10.410;2023-02-13T13:35:45;103463.03;;;11.74;100.00
10510;BME280;5303;53.266;10.410;2023-02-13T13:38:28;103468.75;;;11.71;100.00
10510;BME280;5303;53.266;10.410;2023-02-13T13:43:57;103463.09;;;11.61;100.00
10510;BME280;5303;53.266;10.410;2023-02-13T13:46:35;103459.69;;;11.70;100.00
10510;BME280;5303;53.266;10.410;2023-02-13T13:51:46;103449.13;;;11.65;100.00
10510;BME280;5303;53.266;10.410;2023-02-13T14:05:02;103457.31;;;11.65;100.00
10510;BME280;5303;53.266;10.410;2023-02-13T14:07:36;103458.41;;;11.63;100.00
10510;BME280;5303;53.266;10.410;2023-02-13T14:10:02;103465.81;;;11.61;100.00
10510;BME280;5303;53.266;10.410;2023-02-13T14:14:57;103468.16;;;11.54;100.00
10510;BME280;5303;53.266;10.410;2023-02-13T14:22:46;103459.66;;;11.09;100.00
10510;BME280;5303;53.266;10.410;2023-02-13T14:25:24;103466.53;;;11.15;100.00
10510;BME280;5303;53.266;10.410;2023-02-13T14:27:57;103458.66;;;11.10;100.00
10510;BME280;5303;53.266;10.410;2023-02-13T14:30:29;103462.94;;;11.02;100.00
10510;BME280;5303;53.266;10.410;2023-02-13T14:32:56;103457.56;;;11.13;100.00
10510;BME280;5303;53.266;10.410;2023-02-13T14:35:36;103464.84;;;11.25;100.00
10510;BME280;5303;53.266;10.410;2023-02-13T14:38:04;103465.94;;;11.23;100.00
10510;BME280;5303;53.266;10.410;2023-02-13T14:40:51;103464.44;;;11.18;100.00
10510;BME280;5303;53.266;10.410;2023-02-13T14:46:03;103462.47;;;11.21;100.00
10510;BME280;5303;53.266;10.410;2023-02-13T14:48:35;103462.38;;;11.09;100.00
10510;BME280;5303;53.266;10.410;2023-02-13T14:51:04;103472.97;;;11.14;100.00
10510;BME280;5303;53.266;10.410;2023-02-13T14:53:36;103477.75;;;11.10;100.00